Time;durP1;ratioP1;P1;durP2;ratioP2;P2;SDS_P1;SDS_P2;PMS_P1;PMS_P2;Temp;Humidity;BMP_temperature;BMP_pressure;BME280_temperature;BME280_humidity;BME280_pressure;Samples;Min_cycle;Max_cycle;Signal;HPM_P1;HPM_P2
2021/03/19 00:00:51;;;;;;;62.73;30.65;;;;;;;-3.00;74.14;98793.84;2218014;80;21313;-81
2021/03/19 00:03:53;;;;;;;55.25;30.32;;;;;;;-2.95;74.03;98793.09;2223080;80;21567;-80
2021/03/19 00:06:54;;;;;;;69.90;38.05;;;;;;;-2.88;73.94;98789.25;2224621;80;21325;-80
2021/03/19 00:09:56;;;;;;;208.57;80.10;;;;;;;-2.76;74.13;98795.82;2224703;80;21665;-81
2021/03/19 00:12:57;;;;;;;113.92;43.80;;;;;;;-2.66;73.84;98782.80;2224598;80;21294;-80
2021/03/19 00:15:59;;;;;;;100.27;40.15;;;;;;;-2.54;73.74;98788.93;2224799;80;21306;-80
2021/03/19 00:19:01;;;;;;;66.42;30.50;;;;;;;-2.51;73.66;98786.16;2224844;80;21266;-80
2021/03/19 00:22:02;;;;;;;66.97;31.93;;;;;;;-2.51;73.67;98792.11;2224505;80;21262;-81
2021/03/19 00:25:04;;;;;;;56.02;29.25;;;;;;;-2.48;73.92;98789.34;2224580;80;21150;-80
2021/03/19 00:28:05;;;;;;;57.23;29.30;;;;;;;-2.45;73.83;98784.51;2221176;79;21134;-81
2021/03/19 00:31:07;;;;;;;65.83;30.43;;;;;;;-2.53;73.68;98782.88;2230623;79;21277;-81
2021/03/19 00:34:08;;;;;;;62.65;29.98;;;;;;;-2.57;73.91;98787.36;2225673;79;21285;-81
2021/03/19 00:37:10;;;;;;;75.65;36.25;;;;;;;-2.58;73.92;98783.97;2245382;79;21701;-81
2021/03/19 00:40:11;;;;;;;71.85;35.00;;;;;;;-2.63;74.15;98779.61;2217607;80;21678;-80
2021/03/19 00:43:13;;;;;;;73.07;35.43;;;;;;;-2.66;74.24;98783.63;2216963;80;21336;-82
2021/03/19 00:46:14;;;;;;;70.95;33.25;;;;;;;-2.55;74.41;98780.87;2218271;80;21614;-81
2021/03/19 00:49:16;;;;;;;74.72;34.10;;;;;;;-2.50;74.35;98774.98;2218168;79;21162;-81
2021/03/19 00:52:18;;;;;;;63.63;32.38;;;;;;;-2.51;74.29;98772.88;2219677;80;21151;-80
2021/03/19 00:55:19;;;;;;;69.53;32.88;;;;;;;-2.48;74.20;98774.42;2229671;80;21146;-80
2021/03/19 00:58:21;;;;;;;56.58;30.50;;;;;;;-2.55;74.25;98768.88;2230349;78;21305;-81
2021/03/19 01:01:22;;;;;;;85.25;36.10;;;;;;;-2.63;74.38;98765.97;2229756;80;21320;-81
2021/03/19 01:04:24;;;;;;;75.22;38.60;;;;;;;-2.60;74.64;98769.61;2229458;80;21241;-80
2021/03/19 01:07:25;;;;;;;94.10;44.18;;;;;;;-2.53;74.67;98765.75;2229244;80;21748;-81
2021/03/19 01:10:27;;;;;;;99.10;42.23;;;;;;;-2.46;74.83;98765.73;2229787;78;21137;-80
2021/03/19 01:13:29;;;;;;;93.15;40.48;;;;;;;-2.33;74.75;98765.31;2229817;80;21167;-80
2021/03/19 01:16:30;;;;;;;75.70;37.42;;;;;;;-2.25;74.62;98764.83;2229528;80;21332;-81
2021/03/19 01:19:32;;;;;;;67.97;36.68;;;;;;;-2.18;74.60;98762.24;2229817;80;21734;-81
2021/03/19 01:22:34;;;;;;;140.45;52.58;;;;;;;-2.10;74.58;98763.86;2229687;80;21106;-81
2021/03/19 01:25:35;;;;;;;156.32;63.40;;;;;;;-1.98;74.51;98767.38;2229767;80;21131;-81
2021/03/19 01:28:37;;;;;;;115.80;48.92;;;;;;;-1.91;74.34;98760.10;2229671;80;21182;-81
2021/03/19 01:31:38;;;;;;;124.42;47.60;;;;;;;-1.85;74.32;98769.48;2229697;80;21737;-81
2021/03/19 01:34:40;;;;;;;123.28;50.50;;;;;;;-1.83;74.28;98773.23;2229728;80;21308;-81
2021/03/19 01:37:42;;;;;;;106.15;43.78;;;;;;;-1.83;74.33;98762.97;2229570;80;21276;-81
2021/03/19 01:40:44;;;;;;;94.70;43.20;;;;;;;-1.76;74.37;98762.47;2229771;80;21289;-81
2021/03/19 01:43:45;;;;;;;80.30;37.63;;;;;;;-1.72;74.47;98761.36;2229476;80;21186;-81
2021/03/19 01:46:47;;;;;;;68.90;35.30;;;;;;;-1.61;74.51;98761.11;2229439;80;21174;-80
2021/03/19 01:49:49;;;;;;;86.02;38.48;;;;;;;-1.49;74.47;98755.14;2229635;78;21175;-81
2021/03/19 01:52:50;;;;;;;97.17;42.50;;;;;;;-1.41;74.39;98752.88;2228368;80;21318;-80
2021/03/19 01:55:52;;;;;;;130.93;49.38;;;;;;;-1.28;74.37;98755.00;2224864;80;21706;-80
2021/03/19 01:58:53;;;;;;;121.30;48.25;;;;;;;-1.18;74.17;98749.59;2220451;80;21253;-80
2021/03/19 02:01:55;;;;;;;130.93;48.08;;;;;;;-1.15;74.00;98749.38;2220076;80;21313;-79
2021/03/19 02:04:56;;;;;;;198.10;74.40;;;;;;;-1.11;73.98;98750.44;2224774;79;21841;-81
2021/03/19 02:07:58;;;;;;;171.95;67.08;;;;;;;-1.11;74.02;98750.44;2224566;80;21266;-81
2021/03/19 02:10:59;;;;;;;110.92;43.10;;;;;;;-1.15;73.89;98746.80;2224749;80;21265;-81
2021/03/19 02:14:01;;;;;;;128.30;48.28;;;;;;;-1.14;73.96;98754.05;2224910;80;21718;-81
2021/03/19 02:17:02;;;;;;;226.58;91.82;;;;;;;-1.17;74.18;98749.13;2223974;79;21744;-81
2021/03/19 02:20:04;;;;;;;89.05;41.90;;;;;;;-1.10;74.22;98748.22;2217904;80;21302;-81
2021/03/19 02:23:06;;;;;;;66.35;34.92;;;;;;;-1.12;73.97;98745.77;2217867;80;21285;-80
2021/03/19 02:26:07;;;;;;;57.48;31.95;;;;;;;-1.20;74.12;98743.71;2217884;80;21320;-81
2021/03/19 02:29:09;;;;;;;65.10;31.75;;;;;;;-1.21;74.04;98738.69;2217941;80;21301;-80
2021/03/19 02:32:11;;;;;;;55.95;31.77;;;;;;;-1.19;74.19;98746.67;2218392;80;21305;-81
2021/03/19 02:35:12;;;;;;;70.90;35.08;;;;;;;-1.18;74.20;98750.87;2218162;80;21351;-81
2021/03/19 02:38:14;;;;;;;77.30;36.33;;;;;;;-1.20;74.22;98745.46;2218428;80;21524;-81
2021/03/19 02:41:15;;;;;;;98.00;42.03;;;;;;;-1.18;74.27;98743.17;2218176;80;21277;-82
2021/03/19 02:44:17;;;;;;;98.40;38.90;;;;;;;-1.23;74.09;98742.65;2218423;80;21170;-81
2021/03/19 02:47:19;;;;;;;67.87;35.30;;;;;;;-1.24;74.29;98737.63;2218504;79;21143;-81
2021/03/19 02:50:20;;;;;;;66.05;33.60;;;;;;;-1.27;74.19;98736.09;2218390;80;21182;-81
2021/03/19 02:53:22;;;;;;;65.62;32.60;;;;;;;-1.25;74.45;98736.80;2220701;79;21292;-81
2021/03/19 02:56:23;;;;;;;61.53;33.23;;;;;;;-1.19;74.45;98743.25;2225144;79;21277;-81
2021/03/19 02:59:25;;;;;;;63.45;32.30;;;;;;;-1.21;74.32;98733.08;2225029;79;21615;-81
2021/03/19 03:02:27;;;;;;;76.25;36.83;;;;;;;-1.19;74.37;98736.83;2227758;80;21289;-80
2021/03/19 03:05:28;;;;;;;60.83;31.97;;;;;;;-1.21;74.26;98737.40;2228644;79;21301;-81
2021/03/19 03:08:30;;;;;;;60.38;32.63;;;;;;;-1.25;74.26;98736.80;2228577;80;21690;-81
2021/03/19 03:11:31;;;;;;;57.88;30.15;;;;;;;-1.33;74.24;98736.50;2228599;80;21326;-81
2021/03/19 03:14:33;;;;;;;54.20;30.17;;;;;;;-1.38;74.11;98738.54;2228755;80;21174;-81
2021/03/19 03:17:34;;;;;;;58.20;30.55;;;;;;;-1.45;74.13;98743.76;2228886;80;21316;-81
2021/03/19 03:20:36;;;;;;;63.60;32.35;;;;;;;-1.54;74.16;98750.80;2228741;80;21143;-81
2021/03/19 03:23:38;;;;;;;54.80;31.65;;;;;;;-1.55;74.33;98750.44;2228437;79;21254;-81
2021/03/19 03:26:39;;;;;;;60.45;32.08;;;;;;;-1.56;74.34;98752.62;2228416;80;21115;-81
2021/03/19 03:29:41;;;;;;;58.30;31.75;;;;;;;-1.54;74.41;98745.66;2227008;79;21296;-81
2021/03/19 03:32:43;;;;;;;74.97;36.05;;;;;;;-1.53;74.36;98749.86;2225266;80;21163;-81
2021/03/19 03:35:45;;;;;;;72.08;35.23;;;;;;;-1.59;74.19;98747.70;2225189;79;21320;-81
2021/03/19 03:38:46;;;;;;;62.85;34.35;;;;;;;-1.63;74.32;98756.55;2227309;80;21166;-82
2021/03/19 03:41:48;;;;;;;65.78;34.88;;;;;;;-1.65;74.37;98755.33;2247891;79;21269;-82
2021/03/19 03:44:50;;;;;;;66.55;33.55;;;;;;;-1.70;74.27;98754.83;2265331;78;21539;-82
2021/03/19 03:47:51;;;;;;;63.70;32.30;;;;;;;-1.74;74.44;98746.52;2265368;78;21289;-80
2021/03/19 03:50:53;;;;;;;65.37;34.53;;;;;;;-1.70;74.47;98757.40;2265129;78;21563;-81
2021/03/19 03:53:56;;;;;;;63.20;35.00;;;;;;;-1.69;74.60;98753.09;2262156;79;21281;-82
2021/03/19 03:56:58;;;;;;;63.30;35.23;;;;;;;-1.72;74.49;98753.66;2254386;78;21144;-80
2021/03/19 04:00:00;;;;;;;73.37;39.10;;;;;;;-1.76;74.56;98762.47;2218014;80;21273;-80
2021/03/19 04:03:01;;;;;;;72.20;38.17;;;;;;;-1.76;74.54;98757.33;2218008;80;21278;-81
2021/03/19 04:06:03;;;;;;;71.55;39.30;;;;;;;-1.81;74.58;98752.98;2218304;80;21171;-80
2021/03/19 04:09:04;;;;;;;84.22;45.33;;;;;;;-1.86;74.62;98752.45;2218256;80;21182;-81
2021/03/19 04:12:06;;;;;;;90.72;47.30;;;;;;;-1.92;74.76;98753.30;2218443;80;21566;-81
2021/03/19 04:15:07;;;;;;;112.05;56.42;;;;;;;-1.97;74.85;98754.89;2218246;80;21281;-81
2021/03/19 04:18:09;;;;;;;109.92;55.60;;;;;;;-2.04;74.86;98759.59;2218219;80;21139;-81
2021/03/19 04:21:10;;;;;;;112.75;54.73;;;;;;;-2.07;74.98;98756.42;2218315;80;21180;-80
2021/03/19 04:24:12;;;;;;;136.62;60.45;;;;;;;-2.06;74.81;98753.75;2217916;80;21170;-80
2021/03/19 04:27:14;;;;;;;98.37;48.87;;;;;;;-2.08;74.76;98753.03;2246407;79;21261;-81
2021/03/19 04:30:15;;;;;;;107.27;48.33;;;;;;;-2.17;74.61;98752.34;2233831;78;21297;-82
2021/03/19 04:33:17;;;;;;;93.10;44.38;;;;;;;-2.18;74.60;98757.58;2224883;80;21147;-82
2021/03/19 04:36:19;;;;;;;80.25;39.55;;;;;;;-2.24;74.59;98751.55;2225109;80;21333;-82
2021/03/19 04:39:21;;;;;;;91.85;42.53;;;;;;;-2.23;74.67;98748.88;2225111;80;21565;-81
2021/03/19 04:42:23;;;;;;;93.42;41.05;;;;;;;-2.22;74.74;98757.39;2224806;80;21166;-82
2021/03/19 04:45:24;;;;;;;83.72;43.92;;;;;;;-2.28;74.65;98756.52;2224877;80;21322;-82
2021/03/19 04:48:26;;;;;;;107.27;48.00;;;;;;;-2.30;74.92;98757.88;2224715;80;21134;-82
2021/03/19 04:51:27;;;;;;;96.22;44.75;;;;;;;-2.30;75.13;98768.14;2225005;80;21265;-81
2021/03/19 04:54:29;;;;;;;121.42;52.48;;;;;;;-2.26;75.06;98759.34;2227139;80;21187;-81
2021/03/19 04:57:31;;;;;;;84.30;45.05;;;;;;;-2.32;74.83;98768.70;2229096;80;21178;-81
2021/03/19 05:00:32;;;;;;;89.15;46.40;;;;;;;-2.36;74.72;98770.65;2229825;80;21332;-81
2021/03/19 05:03:34;;;;;;;97.17;49.95;;;;;;;-2.32;75.30;98772.55;2229579;80;21262;-81
2021/03/19 05:06:35;;;;;;;105.78;53.08;;;;;;;-2.24;75.27;98776.73;2229629;80;21126;-81
2021/03/19 05:09:37;;;;;;;98.65;51.98;;;;;;;-2.14;75.46;98771.84;2229493;80;21316;-81
2021/03/19 05:12:39;;;;;;;100.40;50.63;;;;;;;-2.01;75.30;98780.41;2229923;80;21312;-81
2021/03/19 05:15:42;;;;;;;103.65;54.55;;;;;;;-1.86;75.13;98785.81;2229966;78;21143;-82
2021/03/19 05:18:44;;;;;;;101.47;50.23;;;;;;;-1.70;74.88;98774.55;2231060;78;21079;-85
2021/03/19 05:21:45;;;;;;;94.07;50.50;;;;;;;-1.57;74.93;98783.08;2232353;78;21257;-84
2021/03/19 05:24:47;;;;;;;102.70;50.83;;;;;;;-1.38;75.05;98783.49;2244639;78;21256;-83
2021/03/19 05:27:50;;;;;;;112.40;52.62;;;;;;;-1.18;74.94;98774.47;2243068;78;21281;-83
2021/03/19 05:30:54;;;;;;;103.00;52.08;;;;;;;-1.00;74.96;98772.39;2269396;78;21253;-83
2021/03/19 05:33:55;;;;;;;107.95;55.08;;;;;;;-0.83;74.46;98770.74;2253557;78;21292;-84
2021/03/19 05:36:57;;;;;;;105.27;55.35;;;;;;;-0.84;74.21;98773.42;2252557;78;21146;-82
2021/03/19 05:39:58;;;;;;;118.10;55.65;;;;;;;-0.74;74.62;98777.00;2254943;78;21172;-83
2021/03/19 05:43:00;;;;;;;115.12;57.93;;;;;;;-0.65;74.61;98773.31;2246093;78;21284;-83
2021/03/19 05:46:01;;;;;;;118.37;63.25;;;;;;;-0.63;74.62;98773.23;2250664;78;21295;-84
2021/03/19 05:49:03;;;;;;;169.22;80.97;;;;;;;-0.51;74.40;98774.11;2229767;80;21293;-90
2021/03/19 05:52:04;;;;;;;195.32;92.70;;;;;;;-0.35;74.54;98779.36;2166935;82;21302;-85
2021/03/19 05:55:06;;;;;;;161.37;78.35;;;;;;;-0.13;74.43;98780.38;2163068;81;21320;-84
2021/03/19 05:58:07;;;;;;;148.65;75.17;;;;;;;0.11;74.29;98780.38;2210635;80;21128;-84
2021/03/19 06:01:09;;;;;;;123.25;65.65;;;;;;;0.29;74.43;98782.89;2210570;80;21745;-85
2021/03/19 06:04:11;;;;;;;97.15;55.33;;;;;;;0.46;74.10;98790.19;2243695;79;21692;-87
2021/03/19 06:07:12;;;;;;;105.83;58.30;;;;;;;0.43;73.72;98790.40;2262627;79;21123;-85
2021/03/19 06:10:14;;;;;;;94.60;51.55;;;;;;;0.51;74.14;98791.13;2263039;78;21789;-85
2021/03/19 06:13:15;;;;;;;97.12;49.83;;;;;;;0.61;73.86;98798.98;2262250;78;21128;-86
2021/03/19 06:16:17;;;;;;;105.43;54.65;;;;;;;0.69;73.88;98797.48;2262070;79;21293;-87
2021/03/19 06:19:18;;;;;;;110.83;57.23;;;;;;;0.81;73.67;98800.41;2262191;78;21468;-87
2021/03/19 06:22:20;;;;;;;123.80;64.03;;;;;;;0.88;73.41;98799.48;2262893;78;21284;-84
2021/03/19 06:25:21;;;;;;;124.02;63.52;;;;;;;0.98;73.33;98802.19;2261886;79;21273;-83
2021/03/19 06:28:23;;;;;;;159.72;77.58;;;;;;;1.09;72.85;98799.61;2261938;78;21798;-83
2021/03/19 06:31:25;;;;;;;167.60;80.75;;;;;;;1.16;72.91;98805.13;2255673;79;21285;-87
2021/03/19 06:34:26;;;;;;;177.30;83.17;;;;;;;1.18;72.69;98807.93;2222332;80;21756;-85
2021/03/19 06:37:28;;;;;;;159.97;74.35;;;;;;;1.15;72.50;98805.59;2224773;80;21277;-85
2021/03/19 06:40:30;;;;;;;82.30;42.60;;;;;;;1.19;73.10;98812.62;2224675;80;21128;-86
2021/03/19 06:43:31;;;;;;;90.25;47.08;;;;;;;1.19;72.23;98820.35;2224612;80;21297;-85
2021/03/19 06:46:33;;;;;;;56.85;34.60;;;;;;;1.13;72.46;98819.91;2224847;80;21636;-85
2021/03/19 06:49:34;;;;;;;52.40;30.82;;;;;;;1.16;71.91;98815.44;2224739;80;21647;-87
2021/03/19 06:52:36;;;;;;;43.73;25.95;;;;;;;1.18;71.91;98818.72;2224870;80;21290;-86
2021/03/19 06:55:38;;;;;;;64.65;33.95;;;;;;;1.20;71.62;98810.41;2225133;80;21710;-85
2021/03/19 06:58:39;;;;;;;41.48;25.40;;;;;;;1.25;71.40;98814.27;2224847;80;21706;-85
2021/03/19 07:01:48;;;;;;;45.03;27.60;;;;;;;1.24;71.40;98813.09;2224704;80;21763;-85
2021/03/19 07:04:50;;;;;;;34.78;21.95;;;;;;;1.23;71.69;98810.17;2224969;80;21286;-85
2021/03/19 07:07:52;;;;;;;41.45;24.20;;;;;;;1.11;71.23;98811.47;2225056;80;21298;-85
2021/03/19 07:14:36;;;;;;;33.83;20.20;;;;;;;1.05;71.86;98811.92;2189718;80;21189;-84
2021/03/19 07:17:39;;;;;;;30.23;18.57;;;;;;;0.97;71.61;98811.69;2205024;80;21723;-86
2021/03/19 07:20:41;;;;;;;39.23;23.42;;;;;;;0.94;71.71;98818.38;2224891;80;21278;-86
2021/03/19 07:23:42;;;;;;;37.67;23.38;;;;;;;1.03;72.00;98815.56;2224994;80;21701;-86
2021/03/19 07:26:44;;;;;;;25.95;17.92;;;;;;;1.14;72.20;98814.27;2224818;80;21274;-85
2021/03/19 07:29:45;;;;;;;25.00;15.08;;;;;;;1.21;71.25;98814.63;2225075;80;21318;-87
2021/03/19 07:32:47;;;;;;;25.02;15.95;;;;;;;1.28;71.12;98815.78;2224997;80;21306;-84
2021/03/19 07:35:49;;;;;;;31.02;18.55;;;;;;;1.43;70.99;98820.58;2225003;80;21167;-85
2021/03/19 07:38:51;;;;;;;26.40;17.62;;;;;;;1.77;70.71;98819.23;2224790;80;21294;-85
2021/03/19 07:41:53;;;;;;;19.90;14.10;;;;;;;2.08;70.44;98816.78;2225352;80;21309;-85
2021/03/19 07:44:55;;;;;;;19.85;13.68;;;;;;;2.37;69.55;98822.99;2225367;80;21325;-89
2021/03/19 07:47:56;;;;;;;16.70;11.33;;;;;;;2.53;68.09;98818.69;2225251;80;21168;-86
2021/03/19 07:51:00;;;;;;;16.95;13.20;;;;;;;2.61;66.42;98829.70;2225869;80;21123;-89
2021/03/19 07:54:02;;;;;;;39.27;22.82;;;;;;;2.65;68.58;98825.91;2225059;80;21686;-86
2021/03/19 07:57:03;;;;;;;42.20;23.50;;;;;;;2.81;69.08;98824.98;2224979;80;21255;-85
2021/03/19 08:00:05;;;;;;;46.50;23.87;;;;;;;2.94;69.61;98824.80;2224955;80;21278;-87
2021/03/19 08:03:07;;;;;;;30.80;21.45;;;;;;;3.08;69.19;98829.62;2225679;80;21143;-85
2021/03/19 08:06:09;;;;;;;30.75;21.82;;;;;;;3.27;68.78;98819.34;2225406;80;21273;-86
2021/03/19 08:09:10;;;;;;;40.63;26.65;;;;;;;3.62;68.60;98818.91;2225056;80;21326;-85
2021/03/19 08:12:12;;;;;;;41.65;25.25;;;;;;;3.84;68.37;98811.41;2225812;80;21159;-86
2021/03/19 08:15:14;;;;;;;83.00;41.80;;;;;;;3.86;67.72;98815.97;2225478;80;21116;-84
2021/03/19 08:18:15;;;;;;;41.63;25.32;;;;;;;3.83;67.55;98817.52;2226743;80;21143;-88
2021/03/19 08:21:17;;;;;;;38.58;22.77;;;;;;;3.76;66.06;98822.09;2228225;80;21159;-88
2021/03/19 08:24:19;;;;;;;30.35;21.80;;;;;;;3.60;66.89;98817.42;2226486;80;21171;-85
2021/03/19 08:27:20;;;;;;;28.50;19.45;;;;;;;3.57;66.99;98815.11;2225557;80;21286;-86
2021/03/19 08:30:22;;;;;;;27.80;19.87;;;;;;;3.68;66.01;98811.92;2224506;80;21148;-85
2021/03/19 08:33:24;;;;;;;26.60;18.05;;;;;;;3.86;66.04;98811.27;2224405;80;21254;-84
2021/03/19 08:36:25;;;;;;;21.50;15.45;;;;;;;3.96;65.85;98808.20;2225000;80;21576;-85
2021/03/19 08:39:27;;;;;;;51.08;22.62;;;;;;;4.18;65.06;98814.89;2224863;80;21310;-84
2021/03/19 08:42:28;;;;;;;18.60;13.53;;;;;;;4.30;63.38;98813.81;2224696;80;21298;-83
2021/03/19 08:45:30;;;;;;;16.35;12.13;;;;;;;4.21;62.66;98814.16;2224831;80;21286;-83
2021/03/19 08:48:32;;;;;;;16.12;11.10;;;;;;;3.92;61.08;98818.00;2224844;80;21278;-84
2021/03/19 08:51:34;;;;;;;13.55;10.45;;;;;;;3.74;62.20;98812.31;2225518;80;21262;-82
2021/03/19 08:54:35;;;;;;;12.50;9.25;;;;;;;3.65;60.79;98820.41;2225376;79;21135;-82
2021/03/19 08:57:37;;;;;;;8.50;6.60;;;;;;;3.40;60.86;98819.95;2229132;80;21298;-82
2021/03/19 09:00:38;;;;;;;10.50;8.28;;;;;;;3.17;58.07;98822.38;2228888;80;21333;-84
2021/03/19 09:03:40;;;;;;;13.98;9.33;;;;;;;2.86;59.22;98830.61;2228842;80;21333;-81
2021/03/19 09:06:42;;;;;;;11.35;8.03;;;;;;;2.70;60.68;98825.88;2229100;80;21115;-86
2021/03/19 09:09:44;;;;;;;10.05;7.78;;;;;;;2.66;60.21;98823.69;2228791;80;21309;-80
2021/03/19 09:12:45;;;;;;;10.30;7.65;;;;;;;2.71;61.00;98825.41;2229115;80;21713;-80
2021/03/19 09:15:47;;;;;;;10.68;7.47;;;;;;;2.79;60.59;98824.30;2228859;80;21318;-80
2021/03/19 09:18:49;;;;;;;12.30;7.92;;;;;;;2.82;60.30;98825.33;2228872;80;21309;-80
2021/03/19 09:21:51;;;;;;;8.68;7.03;;;;;;;2.89;60.12;98822.58;2229102;80;21172;-82
2021/03/19 09:24:52;;;;;;;7.92;6.78;;;;;;;2.94;59.40;98826.09;2228924;80;21313;-83
2021/03/19 09:27:54;;;;;;;7.87;6.90;;;;;;;3.09;59.68;98824.79;2228814;80;21281;-82
2021/03/19 09:30:55;;;;;;;9.25;7.00;;;;;;;3.29;60.08;98819.21;2228951;80;21142;-81
2021/03/19 09:34:00;;;;;;;8.58;5.50;;;;;;;3.74;59.70;98817.02;2228760;80;21159;-82
2021/03/19 09:37:03;;;;;;;7.08;6.37;;;;;;;3.84;56.57;98817.03;2229078;80;21096;-80
2021/03/19 09:40:04;;;;;;;10.98;6.42;;;;;;;3.91;57.02;98807.78;2229164;80;21773;-80
2021/03/19 09:43:06;;;;;;;11.05;7.37;;;;;;;3.85;55.88;98809.16;2228821;80;21305;-80
2021/03/19 09:46:08;;;;;;;7.90;7.03;;;;;;;3.76;56.66;98806.55;2228820;79;21151;-80
2021/03/19 09:49:09;;;;;;;7.60;5.75;;;;;;;3.79;54.17;98811.45;2228895;80;21132;-81
2021/03/19 09:52:11;;;;;;;8.78;7.03;;;;;;;3.66;53.63;98813.83;2229108;80;21127;-81
2021/03/19 09:55:13;;;;;;;10.30;7.78;;;;;;;3.55;55.56;98811.33;2228845;79;21670;-82
2021/03/19 09:58:15;;;;;;;8.50;7.00;;;;;;;3.48;55.39;98814.60;2229004;80;21254;-81
2021/03/19 10:01:16;;;;;;;6.62;5.97;;;;;;;3.54;55.86;98812.76;2229706;80;21305;-84
2021/03/19 10:04:18;;;;;;;8.53;6.42;;;;;;;3.59;53.55;98812.72;2229368;80;21144;-83
2021/03/19 10:07:22;;;;;;;7.00;6.05;;;;;;;3.60;52.98;98802.70;2229706;80;21274;-85
2021/03/19 10:10:24;;;;;;;5.67;4.50;;;;;;;3.56;51.24;98810.84;2229364;80;21143;-82
2021/03/19 10:13:25;;;;;;;4.25;3.87;;;;;;;3.55;50.70;98813.09;2229581;80;21697;-83
2021/03/19 10:16:27;;;;;;;4.97;4.15;;;;;;;3.56;52.01;98818.62;2228883;80;21163;-83
2021/03/19 10:19:28;;;;;;;4.53;3.92;;;;;;;3.59;51.79;98814.48;2229069;80;21208;-83
2021/03/19 10:22:30;;;;;;;6.33;3.92;;;;;;;3.75;51.33;98813.95;2228541;80;21266;-81
2021/03/19 10:25:32;;;;;;;4.45;4.05;;;;;;;3.86;49.52;98809.97;2229365;80;21270;-81
2021/03/19 10:28:34;;;;;;;5.15;4.45;;;;;;;4.08;51.77;98807.59;2229352;80;21128;-80
2021/03/19 10:35:17;;;;;;;5.87;5.28;;;;;;;4.28;50.56;98819.11;2272470;77;23489;-80
2021/03/19 10:38:10;;;;;;;5.08;4.67;;;;;;;4.30;50.85;98815.11;2262167;78;21325;-82
2021/03/19 10:41:15;;;;;;;4.08;3.70;;;;;;;4.21;48.86;98814.64;2269255;78;21284;-84
2021/03/19 10:44:35;;;;;;;5.97;4.92;;;;;;;4.09;48.37;98815.70;2268768;78;21796;-84
2021/03/19 10:47:37;;;;;;;5.85;4.70;;;;;;;3.87;49.61;98815.49;2269366;78;21178;-84
2021/03/19 10:53:49;;;;;;;6.90;5.80;;;;;;;3.68;49.44;98817.58;2242118;78;21167;-84
2021/03/19 10:56:53;;;;;;;10.38;6.78;;;;;;;3.61;50.41;98820.34;2269360;78;21765;-83
2021/03/19 10:59:54;;;;;;;10.58;6.67;;;;;;;3.61;50.68;98822.45;2269227;78;21328;-83
2021/03/19 11:02:56;;;;;;;7.92;5.95;;;;;;;3.61;50.10;98830.23;2269189;78;21314;-85
2021/03/19 11:05:58;;;;;;;7.72;6.37;;;;;;;3.62;50.21;98827.16;2269254;78;21143;-83
2021/03/19 11:08:59;;;;;;;9.33;6.12;;;;;;;3.59;50.20;98828.25;2269047;78;21738;-84
2021/03/19 11:12:01;;;;;;;13.83;8.88;;;;;;;3.60;50.52;98826.00;2268932;78;21313;-84
2021/03/19 11:15:02;;;;;;;17.12;9.25;;;;;;;3.70;51.20;98826.02;2269175;78;21756;-85
2021/03/19 11:18:04;;;;;;;8.90;6.67;;;;;;;3.88;51.13;98814.06;2269330;78;22250;-84
2021/03/19 11:21:06;;;;;;;10.90;7.85;;;;;;;4.01;50.49;98824.16;2269181;78;21277;-84
2021/03/19 11:24:07;;;;;;;11.25;7.10;;;;;;;4.15;50.66;98817.28;2269407;78;21757;-84
2021/03/19 11:27:09;;;;;;;7.00;5.10;;;;;;;4.26;49.88;98809.36;2269260;78;21305;-85
2021/03/19 11:30:11;;;;;;;7.92;6.30;;;;;;;4.32;49.78;98805.42;2269440;78;21179;-86
2021/03/19 11:33:14;;;;;;;7.10;5.50;;;;;;;4.54;50.06;98808.18;2268001;78;21745;-85
2021/03/19 11:36:18;;;;;;;5.65;5.00;;;;;;;4.72;49.47;98813.48;2266031;78;21119;-86
2021/03/19 11:39:30;;;;;;;6.30;5.60;;;;;;;4.78;49.25;98805.95;2266564;78;21690;-87
2021/03/19 11:46:15;;;;;;;6.30;5.70;;;;;;;5.03;49.19;98807.58;2238174;79;21121;-86
2021/03/19 11:49:19;;;;;;;5.83;5.17;;;;;;;5.20;48.89;98804.72;2265534;79;21187;-88
2021/03/19 11:52:49;;;;;;;8.33;5.37;;;;;;;5.44;48.73;98807.62;2243282;79;21128;-88
2021/03/19 11:55:51;;;;;;;7.22;5.45;;;;;;;5.56;48.31;98799.95;2265251;79;21324;-90
2021/03/19 11:58:53;;;;;;;6.85;4.80;;;;;;;5.54;47.91;98805.78;2265671;79;21179;-88
2021/03/19 12:01:59;;;;;;;7.92;6.80;;;;;;;5.36;47.55;98798.43;2265501;78;21290;-85
2021/03/19 12:05:00;;;;;;;9.93;5.67;;;;;;;5.08;47.41;98806.20;2265352;78;21107;-88
2021/03/19 12:08:02;;;;;;;6.22;5.17;;;;;;;4.84;44.86;98829.20;2265310;79;21713;-86
2021/03/19 12:11:04;;;;;;;6.53;5.12;;;;;;;4.58;45.11;98813.92;2265172;79;21284;-89
2021/03/19 12:14:08;;;;;;;4.72;4.33;;;;;;;4.33;45.81;98816.12;2265344;78;21144;-89
2021/03/19 12:17:12;;;;;;;9.70;5.53;;;;;;;4.28;46.80;98804.86;2265330;78;21135;-89
2021/03/19 12:20:20;;;;;;;5.15;3.50;;;;;;;4.20;45.99;98821.56;2265525;78;21305;-84
2021/03/19 12:23:17;;;;;;;4.80;4.30;;;;;;;4.07;46.16;98816.33;2263027;78;21148;-86
2021/03/19 12:26:19;;;;;;;4.87;4.40;;;;;;;3.89;46.40;98813.58;2265191;78;21167;-86
2021/03/19 12:29:20;;;;;;;4.78;4.42;;;;;;;3.60;46.20;98822.12;2265405;78;21166;-86
2021/03/19 12:32:22;;;;;;;4.30;3.90;;;;;;;3.37;46.69;98828.44;2265198;78;21123;-86
2021/03/19 12:35:23;;;;;;;4.83;4.15;;;;;;;3.24;46.68;98823.98;2258782;78;21536;-85
2021/03/19 12:38:25;;;;;;;4.55;4.17;;;;;;;3.20;46.47;98823.43;2258386;79;21595;-87
2021/03/19 12:41:34;;;;;;;6.00;4.28;;;;;;;3.29;47.57;98819.21;2258248;79;21634;-88
2021/03/19 12:44:33;;;;;;;5.25;4.53;;;;;;;3.38;47.59;98815.39;2257416;79;21302;-90
2021/03/19 12:47:35;;;;;;;5.28;4.80;;;;;;;3.52;47.38;98812.89;2258129;78;21758;-88
2021/03/19 12:50:36;;;;;;;4.17;3.87;;;;;;;3.64;47.53;98821.36;2258315;79;21167;-88
2021/03/19 12:53:38;;;;;;;3.45;3.15;;;;;;;3.65;46.22;98812.64;2258570;78;21135;-87
2021/03/19 12:56:39;;;;;;;3.98;3.67;;;;;;;3.59;46.21;98804.13;2258577;78;21285;-89
2021/03/19 12:59:41;;;;;;;6.45;4.08;;;;;;;3.61;46.59;98818.58;2258432;78;21714;-88
2021/03/19 13:02:42;;;;;;;5.22;4.00;;;;;;;3.51;46.54;98809.97;2258587;79;21179;-89
2021/03/19 13:05:44;;;;;;;5.28;3.80;;;;;;;3.43;46.94;98817.09;2258459;78;21593;-88
2021/03/19 13:08:55;;;;;;;4.65;3.90;;;;;;;3.42;47.61;98818.05;2259308;79;21285;-88
2021/03/19 13:11:56;;;;;;;7.42;4.17;;;;;;;3.44;48.52;98814.03;2259571;79;21298;-88
2021/03/19 13:14:58;;;;;;;4.15;3.75;;;;;;;3.45;49.00;98813.07;2259302;78;21313;-90
2021/03/19 13:18:02;;;;;;;4.92;4.08;;;;;;;3.35;47.95;98814.34;2258632;79;21139;-88
2021/03/19 13:21:03;;;;;;;4.05;3.55;;;;;;;3.23;48.02;98810.70;2258255;79;21163;-88
2021/03/19 13:24:04;;;;;;;5.53;3.75;;;;;;;3.17;48.27;98818.49;2258174;79;21171;-85
2021/03/19 13:27:06;;;;;;;5.72;3.62;;;;;;;3.06;48.58;98811.64;2258147;79;21104;-85
2021/03/19 13:30:09;;;;;;;3.65;2.90;;;;;;;3.05;48.74;98808.72;2258281;79;21281;-85
2021/03/19 13:33:10;;;;;;;7.20;4.00;;;;;;;2.96;48.37;98813.38;2258113;79;21314;-85
2021/03/19 13:36:12;;;;;;;4.62;3.92;;;;;;;2.93;49.00;98818.00;2258115;78;21254;-85
2021/03/19 13:39:13;;;;;;;4.67;3.62;;;;;;;2.89;49.03;98808.36;2258225;79;21269;-84
2021/03/19 13:42:15;;;;;;;5.37;4.25;;;;;;;2.95;49.60;98807.86;2258020;78;21290;-84
2021/03/19 13:45:16;;;;;;;7.20;5.22;;;;;;;3.06;49.46;98800.00;2258062;78;21190;-84
2021/03/19 13:48:18;;;;;;;6.53;5.35;;;;;;;3.23;49.02;98800.34;2258405;78;21563;-85
2021/03/19 13:51:20;;;;;;;6.00;4.47;;;;;;;3.41;48.70;98785.83;2258466;79;21142;-83
2021/03/19 13:54:22;;;;;;;8.65;4.97;;;;;;;3.67;48.18;98788.75;2258520;79;21297;-86
2021/03/19 13:57:24;;;;;;;8.18;5.80;;;;;;;3.93;48.65;98785.14;2258560;78;21706;-84
2021/03/19 14:00:26;;;;;;;4.78;4.22;;;;;;;4.22;48.36;98778.20;2258447;78;21575;-84
2021/03/19 14:03:27;;;;;;;8.50;5.60;;;;;;;4.42;46.05;98782.89;2258095;79;21578;-84
2021/03/19 14:06:29;;;;;;;7.80;6.67;;;;;;;4.65;46.90;98775.59;2258209;78;21321;-85
2021/03/19 14:09:30;;;;;;;7.37;6.30;;;;;;;4.80;47.01;98777.28;2257966;79;21609;-86
2021/03/19 14:12:32;;;;;;;9.43;6.85;;;;;;;4.87;46.50;98784.02;2257704;79;21104;-84
2021/03/19 14:15:34;;;;;;;7.85;6.53;;;;;;;4.89;46.94;98780.80;2258024;79;21104;-84
2021/03/19 14:18:35;;;;;;;7.35;5.40;;;;;;;4.96;46.96;98771.02;2257985;78;21181;-84
2021/03/19 14:21:37;;;;;;;9.75;6.70;;;;;;;4.95;46.14;98771.16;2258277;78;21162;-86